createdAt,value
2023-01-13T00:00:19.549Z,8.60
2023-01-13T00:04:03.878Z,8.61
2023-01-13T00:07:31.667Z,8.59
2023-01-13T00:10:59.693Z,8.56
2023-01-13T00:14:31.291Z,8.56
2023-01-13T00:17:59.080Z,8.54
2023-01-13T00:21:28.347Z,8.50
2023-01-13T00:24:55.807Z,8.49
2023-01-13T00:28:28.420Z,8.49
2023-01-13T00:31:55.900Z,8.49
2023-01-13T00:35:23.413Z,8.46
2023-01-13T00:38:50.688Z,8.50
2023-01-13T00:42:36.349Z,8.50
2023-01-13T00:46:07.952Z,8.48
2023-01-13T00:49:35.152Z,8.46
2023-01-13T00:53:05.652Z,8.46
2023-01-13T00:56:40.038Z,8.45
2023-01-13T01:00:10.339Z,8.46
2023-01-13T01:03:38.565Z,8.48
2023-01-13T01:07:05.265Z,8.47
2023-01-13T01:10:32.046Z,8.48
2023-01-13T01:14:01.707Z,8.48
2023-01-13T01:17:29.479Z,8.50
2023-01-13T01:20:56.446Z,8.51
2023-01-13T01:24:23.156Z,8.53
2023-01-13T01:27:50.063Z,8.52
2023-01-13T01:31:19.540Z,8.50
2023-01-13T01:34:46.416Z,8.49
2023-01-13T01:38:13.284Z,8.49
2023-01-13T01:42:00.558Z,8.43
2023-01-13T01:45:32.104Z,8.49
2023-01-13T01:49:03.997Z,8.49
2023-01-13T01:52:36.212Z,8.49
2023-01-13T01:56:05.090Z,8.52
2023-01-13T01:59:34.055Z,8.56
2023-01-13T02:03:02.754Z,8.58
2023-01-13T02:06:31.391Z,8.59
2023-01-13T02:10:01.361Z,8.62
2023-01-13T02:13:28.156Z,8.61
2023-01-13T02:17:16.958Z,8.61
2023-01-13T02:21:02.880Z,8.62
2023-01-13T02:25:01.384Z,8.62
2023-01-13T02:29:07.753Z,8.60
2023-01-13T02:32:41.762Z,8.59
2023-01-13T02:36:21.818Z,8.61
2023-01-13T02:40:03.828Z,8.64
2023-01-13T02:43:55.196Z,8.65
2023-01-13T02:47:26.243Z,8.63
2023-01-13T02:50:58.057Z,8.61
2023-01-13T02:54:29.314Z,8.61
2023-01-13T02:58:01.313Z,8.61
2023-01-13T03:01:29.215Z,8.60
2023-01-13T03:04:59.011Z,8.62
2023-01-13T03:08:41.833Z,8.63
2023-01-13T03:12:17.529Z,8.63
2023-01-13T03:15:56.145Z,8.63
2023-01-13T03:19:37.024Z,8.61
2023-01-13T03:23:09.095Z,8.60
2023-01-13T03:26:41.143Z,8.58
2023-01-13T03:30:12.386Z,8.56
2023-01-13T03:33:45.993Z,8.58
2023-01-13T03:37:15.753Z,8.57
2023-01-13T03:40:47.786Z,8.57
2023-01-13T03:44:27.636Z,8.58
2023-01-13T03:48:02.357Z,8.59
2023-01-13T03:51:33.602Z,8.61
2023-01-13T03:55:07.358Z,8.62
2023-01-13T03:58:39.142Z,8.60
2023-01-13T04:02:09.807Z,8.57
2023-01-13T04:05:41.655Z,8.56
2023-01-13T04:09:16.266Z,8.56
2023-01-13T04:13:03.197Z,8.54
2023-01-13T04:16:30.119Z,8.56
2023-01-13T04:19:56.757Z,8.57
2023-01-13T04:23:24.778Z,8.59
2023-01-13T04:26:51.363Z,8.60
2023-01-13T04:30:20.577Z,8.62
2023-01-13T04:33:47.412Z,8.65
2023-01-13T04:37:14.531Z,8.67
2023-01-13T04:40:42.405Z,8.63
2023-01-13T04:44:09.759Z,8.63
2023-01-13T04:47:36.664Z,8.63
2023-01-13T04:51:03.335Z,8.62
2023-01-13T04:54:29.702Z,8.62
2023-01-13T04:57:56.582Z,8.62
2023-01-13T05:01:24.112Z,8.59
2023-01-13T05:04:51.248Z,8.59
2023-01-13T05:08:17.572Z,8.62
2023-01-13T05:12:01.618Z,8.60
2023-01-13T05:15:45.915Z,8.61
2023-01-13T05:19:12.528Z,8.61
2023-01-13T05:22:56.945Z,8.62
2023-01-13T05:26:26.019Z,8.62
2023-01-13T05:29:53.123Z,8.64
2023-01-13T05:33:21.733Z,8.64
2023-01-13T05:36:48.684Z,8.66
2023-01-13T05:40:35.379Z,8.64
2023-01-13T05:44:01.984Z,8.64
2023-01-13T05:47:34.256Z,8.65
2023-01-13T05:51:01.557Z,8.66
2023-01-13T05:54:28.384Z,8.68
2023-01-13T05:57:54.822Z,8.69
2023-01-13T06:01:21.529Z,8.69
2023-01-13T06:04:47.772Z,8.70
2023-01-13T06:08:14.690Z,8.70
2023-01-13T06:11:41.472Z,8.69
2023-01-13T06:15:17.077Z,8.66
2023-01-13T06:18:44.226Z,8.66
2023-01-13T06:22:16.627Z,8.66
2023-01-13T06:25:49.015Z,8.66
2023-01-13T06:29:17.077Z,8.66
2023-01-13T06:32:46.921Z,8.67
2023-01-13T06:36:18.210Z,8.65
2023-01-13T06:39:45.662Z,8.65
2023-01-13T06:43:18.359Z,8.63
2023-01-13T06:46:44.598Z,8.64
2023-01-13T06:50:13.172Z,8.65
2023-01-13T06:53:40.230Z,8.65
2023-01-13T06:57:07.390Z,8.66
2023-01-13T07:00:36.757Z,8.67
2023-01-13T07:04:03.931Z,8.67
2023-01-13T07:07:30.399Z,8.68
2023-01-13T07:10:57.325Z,8.68
2023-01-13T07:14:41.681Z,8.69
2023-01-13T07:18:08.481Z,8.71
2023-01-13T07:21:35.279Z,8.71
2023-01-13T07:25:01.829Z,8.70
2023-01-13T07:28:29.246Z,8.70
2023-01-13T07:31:56.508Z,8.71
2023-01-13T07:35:23.696Z,8.71
2023-01-13T07:38:50.264Z,8.70
2023-01-13T07:42:34.540Z,8.73
2023-01-13T07:46:01.985Z,8.73
2023-01-13T07:49:28.747Z,8.72
2023-01-13T07:52:58.701Z,8.74
2023-01-13T07:56:25.612Z,8.74
2023-01-13T07:59:52.766Z,8.73
2023-01-13T08:03:19.491Z,8.77
2023-01-13T08:06:45.838Z,8.80
2023-01-13T08:10:13.939Z,8.81
2023-01-13T08:13:40.637Z,8.81
2023-01-13T08:17:09.072Z,8.80
2023-01-13T08:20:35.861Z,8.83
2023-01-13T08:24:02.086Z,8.87
2023-01-13T08:27:29.834Z,8.85
2023-01-13T08:31:02.403Z,8.86
2023-01-13T08:34:29.056Z,8.86
2023-01-13T08:37:55.478Z,8.87
2023-01-13T08:41:36.177Z,8.87
2023-01-13T08:45:02.788Z,8.90
2023-01-13T08:48:31.638Z,8.95
2023-01-13T08:51:58.549Z,8.98
2023-01-13T08:55:25.458Z,9.00
2023-01-13T08:58:52.310Z,9.02
2023-01-13T09:02:22.179Z,9.05
2023-01-13T09:05:48.891Z,9.04
2023-01-13T09:09:15.824Z,9.03
2023-01-13T09:13:00.415Z,9.04
2023-01-13T09:16:26.773Z,9.07
2023-01-13T09:19:57.050Z,9.09
2023-01-13T09:23:23.827Z,9.13
2023-01-13T09:26:51.169Z,9.15
2023-01-13T09:30:18.206Z,9.17
2023-01-13T09:34:05.675Z,9.20
2023-01-13T09:37:34.700Z,9.25
2023-01-13T09:41:01.330Z,9.28
2023-01-13T09:44:38.752Z,9.31
2023-01-13T09:48:12.691Z,9.36
2023-01-13T09:51:46.029Z,9.37
2023-01-13T09:55:15.700Z,9.42
2023-01-13T09:58:42.428Z,9.45
2023-01-13T10:02:39.814Z,9.51
2023-01-13T10:06:13.658Z,9.57
2023-01-13T10:09:49.410Z,9.63
2023-01-13T10:13:24.322Z,9.69
2023-01-13T10:16:58.571Z,9.71
2023-01-13T10:20:30.827Z,9.73
2023-01-13T10:24:07.601Z,9.76
2023-01-13T10:27:36.574Z,9.78
2023-01-13T10:31:07.325Z,9.79
2023-01-13T10:34:46.323Z,9.83
2023-01-13T10:38:19.602Z,9.84
2023-01-13T10:41:46.189Z,9.89
2023-01-13T10:45:26.473Z,9.93
2023-01-13T10:48:57.049Z,9.95
2023-01-13T10:52:31.904Z,9.97
2023-01-13T10:56:07.386Z,9.99
2023-01-13T10:59:34.162Z,9.97
2023-01-13T11:03:18.348Z,9.97
2023-01-13T11:06:48.952Z,9.93
2023-01-13T11:10:27.620Z,9.93
2023-01-13T11:14:20.656Z,9.93
2023-01-13T11:18:00.584Z,9.95
2023-01-13T11:21:34.446Z,9.91
2023-01-13T11:25:04.173Z,9.90
2023-01-13T11:28:47.327Z,9.91
2023-01-13T11:32:21.447Z,9.91
2023-01-13T11:36:07.344Z,9.89
2023-01-13T11:39:54.774Z,9.93
2023-01-13T11:43:34.200Z,10.02
2023-01-13T11:47:02.450Z,10.07
2023-01-13T11:50:35.917Z,10.13
2023-01-13T11:54:30.462Z,10.19
2023-01-13T11:58:13.704Z,10.20
2023-01-13T12:01:57.300Z,10.22
2023-01-13T12:05:31.102Z,10.24
2023-01-13T12:09:06.334Z,10.28
2023-01-13T12:12:43.547Z,10.32
2023-01-13T12:16:23.694Z,10.35
2023-01-13T12:19:52.507Z,10.38
2023-01-13T12:23:29.286Z,10.39
2023-01-13T12:27:00.196Z,10.43
2023-01-13T12:30:37.234Z,10.44
2023-01-13T12:34:28.205Z,10.44
2023-01-13T12:38:06.833Z,10.47
2023-01-13T12:42:03.085Z,10.54
2023-01-13T12:45:34.667Z,10.56
2023-01-13T12:49:19.276Z,10.57
2023-01-13T12:52:48.516Z,10.54
2023-01-13T12:56:36.335Z,10.44
2023-01-13T13:00:24.015Z,10.36
2023-01-13T13:04:14.137Z,10.29
2023-01-13T13:07:46.532Z,10.22
2023-01-13T13:12:04.196Z,10.20
2023-01-13T13:15:34.301Z,10.16
2023-01-13T13:19:40.786Z,10.15
2023-01-13T13:23:39.203Z,10.15
2023-01-13T13:27:21.536Z,10.14
2023-01-13T13:30:57.535Z,10.14
2023-01-13T13:34:34.586Z,10.12
2023-01-13T13:38:36.783Z,10.09
2023-01-13T13:42:30.247Z,10.09
2023-01-13T13:46:14.800Z,10.07
2023-01-13T13:49:46.933Z,10.08
2023-01-13T13:53:14.405Z,10.05
2023-01-13T13:56:49.059Z,10.04
2023-01-13T14:00:24.960Z,10.02
2023-01-13T14:04:07.050Z,10.00
2023-01-13T14:07:42.970Z,9.99
2023-01-13T14:11:29.579Z,9.94
2023-01-13T14:14:57.901Z,9.88
2023-01-13T14:18:25.089Z,9.83
2023-01-13T14:21:51.972Z,9.82
2023-01-13T14:25:40.205Z,9.76
2023-01-13T14:29:07.813Z,9.74
2023-01-13T14:32:37.437Z,9.71
2023-01-13T14:36:19.582Z,9.69
2023-01-13T14:39:46.779Z,9.65
2023-01-13T14:43:16.389Z,9.63
2023-01-13T14:46:46.294Z,9.57
2023-01-13T14:50:28.282Z,9.50
2023-01-13T14:53:58.883Z,9.45
2023-01-13T14:57:32.115Z,9.41
2023-01-13T15:01:36.499Z,9.32
2023-01-13T15:05:39.648Z,9.24
2023-01-13T15:09:15.019Z,9.15
2023-01-13T15:12:42.801Z,9.06
2023-01-13T15:16:18.922Z,8.98
2023-01-13T15:19:45.889Z,8.94
2023-01-13T15:23:13.133Z,8.91
2023-01-13T15:26:40.276Z,8.88
2023-01-13T15:30:14.295Z,8.84
2023-01-13T15:33:45.247Z,8.81
2023-01-13T15:37:13.475Z,8.77
2023-01-13T15:40:40.251Z,8.75
2023-01-13T15:44:24.701Z,8.68
2023-01-13T15:47:51.333Z,8.68
2023-01-13T15:51:17.909Z,8.67
2023-01-13T15:54:47.360Z,8.66
2023-01-13T15:58:18.456Z,8.64
2023-01-13T16:01:47.359Z,8.61
2023-01-13T16:05:15.084Z,8.60
2023-01-13T16:08:42.833Z,8.55
2023-01-13T16:12:11.629Z,8.47
2023-01-13T16:15:40.077Z,8.40
2023-01-13T16:19:06.349Z,8.33
2023-01-13T16:22:38.009Z,8.24
2023-01-13T16:26:08.011Z,8.22
2023-01-13T16:29:35.129Z,8.20
2023-01-13T16:33:19.153Z,8.17
2023-01-13T16:36:46.589Z,8.13
2023-01-13T16:40:23.543Z,8.11
2023-01-13T16:43:50.363Z,8.09
2023-01-13T16:47:19.853Z,8.10
2023-01-13T16:50:47.076Z,8.10
2023-01-13T16:54:14.999Z,8.11
2023-01-13T16:57:43.482Z,8.10
2023-01-13T17:01:19.306Z,8.12
2023-01-13T17:04:46.273Z,8.13
2023-01-13T17:08:18.480Z,8.11
2023-01-13T17:11:48.296Z,8.09
2023-01-13T17:15:19.555Z,8.04
2023-01-13T17:18:50.425Z,7.97
2023-01-13T17:22:17.327Z,7.90
2023-01-13T17:25:44.832Z,7.83
2023-01-13T17:29:17.112Z,7.75
2023-01-13T17:32:47.617Z,7.66
2023-01-13T17:36:17.976Z,7.59
2023-01-13T17:39:48.671Z,7.54
2023-01-13T17:43:16.764Z,7.48
2023-01-13T17:46:43.783Z,7.45
2023-01-13T17:50:14.430Z,7.45
2023-01-13T17:53:44.512Z,7.43
2023-01-13T17:57:11.076Z,7.42
2023-01-13T18:00:40.601Z,7.40
2023-01-13T18:04:07.790Z,7.38
2023-01-13T18:07:35.256Z,7.36
2023-01-13T18:11:03.585Z,7.33
2023-01-13T18:14:32.602Z,7.34
2023-01-13T18:18:00.775Z,7.34
2023-01-13T18:21:46.404Z,7.32
2023-01-13T18:25:32.757Z,7.30
2023-01-13T18:28:59.562Z,7.28
2023-01-13T18:32:32.454Z,7.22
2023-01-13T18:36:01.549Z,7.14
2023-01-13T18:39:30.678Z,7.10
2023-01-13T18:42:59.477Z,7.06
2023-01-13T18:46:26.248Z,7.00
2023-01-13T18:49:57.066Z,6.91
2023-01-13T18:53:36.663Z,6.85
2023-01-13T18:57:09.185Z,6.79
2023-01-13T19:00:57.064Z,6.76
2023-01-13T19:04:37.820Z,6.76
2023-01-13T19:08:23.398Z,6.77
2023-01-13T19:11:58.266Z,6.78
2023-01-13T19:15:29.847Z,6.78
2023-01-13T19:19:07.317Z,6.79
2023-01-13T19:22:44.063Z,6.82
2023-01-13T19:26:16.330Z,6.82
2023-01-13T19:29:57.601Z,6.82
2023-01-13T19:33:30.360Z,6.83
2023-01-13T19:37:06.665Z,6.81
2023-01-13T19:40:39.704Z,6.78
2023-01-13T19:44:29.087Z,6.72
2023-01-13T19:48:05.909Z,6.66
2023-01-13T19:51:46.155Z,6.60
2023-01-13T19:59:14.009Z,6.43
2023-01-13T20:02:50.142Z,6.37
2023-01-13T20:06:18.221Z,6.34
2023-01-13T20:09:54.459Z,6.30
2023-01-13T20:13:28.458Z,6.26
2023-01-13T20:17:01.193Z,6.26
2023-01-13T20:20:34.429Z,6.24
2023-01-13T20:24:04.537Z,6.23
2023-01-13T20:27:35.973Z,6.24
2023-01-13T20:31:09.664Z,6.25
2023-01-13T20:34:43.044Z,6.25
2023-01-13T20:38:12.060Z,6.25
2023-01-13T20:41:59.326Z,6.28
2023-01-13T20:45:28.557Z,6.29
2023-01-13T20:48:59.061Z,6.27
2023-01-13T20:52:31.515Z,6.26
2023-01-13T20:56:14.601Z,6.22
2023-01-13T20:59:46.993Z,6.15
2023-01-13T21:03:24.939Z,6.09
2023-01-13T21:07:02.436Z,6.02
2023-01-13T21:10:35.254Z,6.00
2023-01-13T21:14:32.575Z,5.98
2023-01-13T21:18:19.273Z,6.01
2023-01-13T21:21:48.466Z,6.03
2023-01-13T21:25:35.410Z,6.06
2023-01-13T21:29:07.043Z,6.10
2023-01-13T21:32:57.393Z,6.16
2023-01-13T21:36:35.234Z,6.23
2023-01-13T21:40:21.457Z,6.29
2023-01-13T21:44:17.965Z,6.35
2023-01-13T21:48:01.299Z,6.42
2023-01-13T21:51:36.983Z,6.47
2023-01-13T21:55:33.546Z,6.50
2023-01-13T21:59:04.000Z,6.50
2023-01-13T22:02:39.153Z,6.51
2023-01-13T22:06:09.275Z,6.50
2023-01-13T22:09:43.866Z,6.45
2023-01-13T22:13:32.138Z,6.43
2023-01-13T22:17:04.937Z,6.41
2023-01-13T22:20:55.381Z,6.42
2023-01-13T22:24:25.823Z,6.42
2023-01-13T22:27:57.369Z,6.41
2023-01-13T22:31:37.459Z,6.40
2023-01-13T22:35:05.236Z,6.39
2023-01-13T22:38:34.045Z,6.42
2023-01-13T22:42:01.980Z,6.43
2023-01-13T22:45:36.644Z,6.43
2023-01-13T22:49:11.659Z,6.43
2023-01-13T22:52:40.825Z,6.39
2023-01-13T22:56:17.713Z,6.36
2023-01-13T22:59:47.166Z,6.32
2023-01-13T23:03:17.592Z,6.28
2023-01-13T23:06:45.639Z,6.23
2023-01-13T23:10:16.858Z,6.15
2023-01-13T23:13:49.009Z,6.10
2023-01-13T23:17:20.598Z,6.07
2023-01-13T23:20:49.865Z,6.03
2023-01-13T23:24:42.151Z,6.02
2023-01-13T23:28:12.986Z,6.00
2023-01-13T23:31:42.591Z,5.93
2023-01-13T23:35:16.074Z,5.96
2023-01-13T23:38:48.689Z,5.94
2023-01-13T23:42:19.244Z,5.91
2023-01-13T23:45:47.731Z,5.85
2023-01-13T23:49:16.007Z,5.82
2023-01-13T23:52:48.659Z,5.78
2023-01-13T23:56:31.669Z,5.73
